createdAt,value
2022-12-26T00:00:01.217Z,101714.94
2022-12-26T00:03:22.935Z,101706.31
2022-12-26T00:06:45.955Z,101708.66
2022-12-26T00:10:09.148Z,101713.69
2022-12-26T00:13:40.392Z,101713.59
2022-12-26T00:17:03.083Z,101711.00
2022-12-26T00:20:27.822Z,101706.78
2022-12-26T00:23:51.353Z,101695.50
2022-12-26T00:27:13.327Z,101714.16
2022-12-26T00:30:35.539Z,101699.81
2022-12-26T00:33:57.354Z,101710.25
2022-12-26T00:37:19.261Z,101695.44
2022-12-26T00:40:43.571Z,101713.50
2022-12-26T00:44:05.331Z,101709.16
2022-12-26T00:47:27.086Z,101703.75
2022-12-26T00:50:48.930Z,101742.38
2022-12-26T00:54:10.623Z,101737.16
2022-12-26T00:57:33.732Z,101715.56
2022-12-26T01:00:56.492Z,101721.97
2022-12-26T01:04:18.247Z,101724.53
2022-12-26T01:08:23.584Z,101715.97
2022-12-26T01:11:37.501Z,101711.63
2022-12-26T01:15:01.253Z,101703.66
2022-12-26T01:18:23.594Z,101700.97
2022-12-26T01:21:45.695Z,101699.91
2022-12-26T01:25:08.697Z,101708.53
2022-12-26T01:28:30.787Z,101705.13
2022-12-26T01:31:54.029Z,101704.31
2022-12-26T01:35:16.646Z,101698.44
2022-12-26T01:38:38.882Z,101708.09
2022-12-26T01:42:00.544Z,101702.94
2022-12-26T01:45:29.229Z,101688.28
2022-12-26T01:48:53.517Z,101682.63
2022-12-26T01:52:22.491Z,101697.22
2022-12-26T01:55:47.411Z,101681.09
2022-12-26T01:59:12.812Z,101688.09
2022-12-26T02:02:55.669Z,101689.88
2022-12-26T02:06:17.937Z,101680.44
2022-12-26T02:09:40.158Z,101681.34
2022-12-26T02:13:02.562Z,101676.38
2022-12-26T02:16:25.847Z,101672.16
2022-12-26T02:20:00.527Z,101655.78
2022-12-26T02:23:52.203Z,101665.34
2022-12-26T02:27:36.718Z,101661.84
2022-12-26T02:31:08.332Z,101636.06
2022-12-26T02:34:38.337Z,101639.59
2022-12-26T02:38:14.186Z,101634.66
2022-12-26T02:41:48.760Z,101625.31
2022-12-26T02:45:35.814Z,101624.63
2022-12-26T02:49:05.156Z,101612.81
2022-12-26T02:52:52.637Z,101617.16
2022-12-26T02:56:38.158Z,101616.56
2022-12-26T03:00:20.345Z,101594.25
2022-12-26T03:04:03.115Z,101618.38
2022-12-26T03:07:50.577Z,101612.41
2022-12-26T03:11:30.054Z,101602.81
2022-12-26T03:14:56.342Z,101638.22
2022-12-26T03:18:19.539Z,101636.63
2022-12-26T03:22:23.556Z,101640.06
2022-12-26T03:26:12.113Z,101627.97
2022-12-26T03:29:51.262Z,101627.25
2022-12-26T03:33:26.845Z,101635.97
2022-12-26T03:37:02.926Z,101619.84
2022-12-26T03:41:02.828Z,101613.34
2022-12-26T03:45:02.341Z,101606.38
2022-12-26T03:48:50.053Z,101615.25
2022-12-26T03:52:41.100Z,101615.50
2022-12-26T03:56:32.675Z,101583.78
2022-12-26T04:00:21.019Z,101597.84
2022-12-26T04:04:02.668Z,101585.06
2022-12-26T04:07:56.716Z,101563.63
2022-12-26T04:11:40.182Z,101573.13
2022-12-26T04:15:25.848Z,101569.09
2022-12-26T04:19:11.873Z,101571.50
2022-12-26T04:23:01.826Z,101567.34
2022-12-26T04:26:47.294Z,101546.78
2022-12-26T04:30:29.272Z,101552.00
2022-12-26T04:34:14.957Z,101550.38
2022-12-26T04:37:59.620Z,101551.25
2022-12-26T04:41:40.310Z,101537.47
2022-12-26T04:45:03.838Z,101548.75
2022-12-26T04:48:46.456Z,101523.84
2022-12-26T04:52:11.842Z,101530.06
2022-12-26T04:55:35.937Z,101534.50
2022-12-26T04:58:58.065Z,101530.94
2022-12-26T05:02:39.694Z,101535.31
2022-12-26T05:06:20.566Z,101531.28
2022-12-26T05:09:42.700Z,101526.34
2022-12-26T05:13:04.636Z,101520.63
2022-12-26T05:16:45.087Z,101524.81
2022-12-26T05:20:25.352Z,101510.97
2022-12-26T05:24:07.026Z,101533.47
2022-12-26T05:27:51.044Z,101521.50
2022-12-26T05:31:15.651Z,101522.47
2022-12-26T05:34:36.099Z,101500.06
2022-12-26T05:37:58.002Z,101509.03
2022-12-26T05:41:21.206Z,101500.72
2022-12-26T05:44:44.140Z,101498.13
2022-12-26T05:48:05.946Z,101496.56
2022-12-26T05:51:27.902Z,101500.16
2022-12-26T05:54:52.555Z,101498.53
2022-12-26T05:58:15.561Z,101489.09
2022-12-26T06:01:37.655Z,101483.22
2022-12-26T06:04:59.488Z,101488.47
2022-12-26T06:08:22.757Z,101477.44
2022-12-26T06:11:48.748Z,101492.19
2022-12-26T06:15:12.960Z,101489.88
2022-12-26T06:18:35.339Z,101498.47
2022-12-26T06:21:57.494Z,101498.47
2022-12-26T06:25:19.773Z,101501.03
2022-12-26T06:28:43.433Z,101499.34
2022-12-26T06:32:07.164Z,101509.72
2022-12-26T06:35:29.072Z,101506.34
2022-12-26T06:38:51.631Z,101510.69
2022-12-26T06:42:13.419Z,101514.09
2022-12-26T06:45:35.444Z,101513.34
2022-12-26T06:48:59.186Z,101507.41
2022-12-26T06:52:21.502Z,101505.72
2022-12-26T06:55:43.421Z,101517.84
2022-12-26T06:59:07.934Z,101514.56
2022-12-26T07:02:29.757Z,101494.94
2022-12-26T07:05:53.130Z,101511.25
2022-12-26T07:09:17.621Z,101512.13
2022-12-26T07:12:39.440Z,101515.59
2022-12-26T07:16:01.783Z,101511.25
2022-12-26T07:19:23.978Z,101522.59
2022-12-26T07:22:47.287Z,101518.25
2022-12-26T07:26:10.042Z,101521.75
2022-12-26T07:29:32.859Z,101505.56
2022-12-26T07:32:54.878Z,101505.66
2022-12-26T07:36:16.933Z,101514.22
2022-12-26T07:39:40.163Z,101516.75
2022-12-26T07:43:02.200Z,101515.97
2022-12-26T07:46:24.019Z,101523.63
2022-12-26T07:49:45.746Z,101516.91
2022-12-26T07:53:07.711Z,101494.84
2022-12-26T07:56:32.705Z,101506.03
2022-12-26T07:59:54.558Z,101490.88
2022-12-26T08:03:16.307Z,101493.47
2022-12-26T08:06:38.132Z,101492.72
2022-12-26T08:09:59.765Z,101480.88
2022-12-26T08:13:24.410Z,101480.00
2022-12-26T08:16:51.402Z,101475.13
2022-12-26T08:20:14.918Z,101467.38
2022-12-26T08:23:36.779Z,101474.31
2022-12-26T08:26:58.448Z,101464.22
2022-12-26T08:30:21.813Z,101443.63
2022-12-26T08:33:44.213Z,101463.25
2022-12-26T08:37:06.244Z,101455.63
2022-12-26T08:40:42.650Z,101457.31
2022-12-26T08:47:49.050Z,101459.22
2022-12-26T08:51:14.098Z,101459.13
2022-12-26T08:54:36.431Z,101454.97
2022-12-26T08:57:58.521Z,101441.41
2022-12-26T09:01:22.156Z,101437.38
2022-12-26T09:04:45.490Z,101421.25
2022-12-26T09:08:07.593Z,101419.53
2022-12-26T09:11:30.740Z,101423.81
2022-12-26T09:14:52.833Z,101415.41
2022-12-26T09:18:14.656Z,101408.41
2022-12-26T09:21:38.106Z,101423.91
2022-12-26T09:24:59.960Z,101418.03
2022-12-26T09:28:22.009Z,101417.09
2022-12-26T09:31:44.218Z,101402.75
2022-12-26T09:35:07.614Z,101376.16
2022-12-26T09:38:31.294Z,101391.63
2022-12-26T09:42:06.211Z,101393.47
2022-12-26T09:45:36.095Z,101403.72
2022-12-26T09:49:03.851Z,101371.06
2022-12-26T09:52:38.331Z,101378.91
2022-12-26T09:56:05.496Z,101390.41
2022-12-26T09:59:29.813Z,101377.59
2022-12-26T10:02:55.105Z,101385.63
2022-12-26T10:06:19.171Z,101379.69
2022-12-26T10:09:56.189Z,101371.19
2022-12-26T10:13:29.506Z,101349.59
2022-12-26T10:16:57.952Z,101354.88
2022-12-26T10:20:27.047Z,101346.28
2022-12-26T10:23:52.662Z,101346.28
2022-12-26T10:27:17.753Z,101330.91
2022-12-26T10:30:43.835Z,101324.13
2022-12-26T10:34:13.842Z,101314.72
2022-12-26T10:37:40.751Z,101310.44
2022-12-26T10:41:12.606Z,101300.91
2022-12-26T10:44:34.440Z,101300.25
2022-12-26T10:47:57.921Z,101300.06
2022-12-26T10:51:22.484Z,101304.63
2022-12-26T10:54:46.619Z,101310.59
2022-12-26T10:58:17.713Z,101308.72
2022-12-26T11:01:47.346Z,101303.53
2022-12-26T11:05:21.825Z,101295.75
2022-12-26T11:08:55.121Z,101289.72
2022-12-26T11:12:22.420Z,101289.72
2022-12-26T11:15:50.491Z,101277.72
2022-12-26T11:19:28.161Z,101269.34
2022-12-26T11:22:52.123Z,101256.59
2022-12-26T11:26:23.037Z,101261.72
2022-12-26T11:29:44.879Z,101250.53
2022-12-26T11:33:22.215Z,101204.81
2022-12-26T11:36:48.388Z,101237.56
2022-12-26T11:40:18.946Z,101225.69
2022-12-26T11:43:40.502Z,101211.97
2022-12-26T11:47:11.925Z,101214.63
2022-12-26T11:50:35.377Z,101212.66
2022-12-26T11:54:14.804Z,101201.44
2022-12-26T11:57:37.610Z,101194.72
2022-12-26T12:01:16.887Z,101185.13
2022-12-26T12:04:38.562Z,101184.09
2022-12-26T12:08:24.748Z,101157.78
2022-12-26T12:11:57.466Z,101181.81
2022-12-26T12:15:26.591Z,101154.91
2022-12-26T12:18:55.061Z,101165.97
2022-12-26T12:22:33.708Z,101157.44
2022-12-26T12:26:07.547Z,101162.34
2022-12-26T12:29:44.421Z,101157.72
2022-12-26T12:33:31.778Z,101128.31
2022-12-26T12:37:08.137Z,101111.81
2022-12-26T12:40:38.756Z,101124.16
2022-12-26T12:44:05.780Z,101125.75
2022-12-26T12:47:48.449Z,101103.34
2022-12-26T12:51:20.579Z,101104.84
2022-12-26T12:55:06.375Z,101097.09
2022-12-26T12:58:36.878Z,101083.25
2022-12-26T13:02:09.584Z,101064.22
2022-12-26T13:05:43.452Z,101053.88
2022-12-26T13:09:14.103Z,101051.25
2022-12-26T13:12:40.007Z,101051.31
2022-12-26T13:16:08.533Z,101053.00
2022-12-26T13:19:38.990Z,101050.47
2022-12-26T13:23:22.896Z,101032.53
2022-12-26T13:26:50.204Z,101030.84
2022-12-26T13:30:15.596Z,101029.09
2022-12-26T13:33:37.526Z,101015.91
2022-12-26T13:37:00.673Z,101028.81
2022-12-26T13:40:26.510Z,101017.63
2022-12-26T13:44:07.075Z,101010.84
2022-12-26T13:47:35.610Z,101014.97
2022-12-26T13:51:00.238Z,101008.94
2022-12-26T13:54:24.260Z,100990.03
2022-12-26T13:57:47.555Z,100993.66
2022-12-26T14:01:30.072Z,100955.66
2022-12-26T14:04:59.513Z,100980.59
2022-12-26T14:08:28.360Z,100982.41
2022-12-26T14:12:08.587Z,100964.41
2022-12-26T14:15:38.917Z,100961.81
2022-12-26T14:19:12.456Z,100939.47
2022-12-26T14:22:44.120Z,100948.13
2022-12-26T14:26:21.043Z,100948.22
2022-12-26T14:29:49.968Z,100948.16
2022-12-26T14:33:25.952Z,100955.00
2022-12-26T14:36:56.665Z,100944.69
2022-12-26T14:40:28.764Z,100956.72
2022-12-26T14:43:54.718Z,100955.00
2022-12-26T14:47:38.643Z,100951.66
2022-12-26T14:51:39.328Z,100933.88
2022-12-26T14:55:43.298Z,100914.09
2022-12-26T14:59:29.133Z,100904.56
2022-12-26T15:03:35.239Z,100883.25
2022-12-26T15:07:20.384Z,100899.00
2022-12-26T15:11:20.266Z,100893.91
2022-12-26T15:15:09.715Z,100884.47
2022-12-26T15:18:44.075Z,100884.50
2022-12-26T15:22:28.995Z,100880.19
2022-12-26T15:26:23.358Z,100880.06
2022-12-26T15:30:11.937Z,100880.09
2022-12-26T15:33:40.882Z,100851.78
2022-12-26T15:37:09.287Z,100863.06
2022-12-26T15:40:35.837Z,100852.81
2022-12-26T15:44:17.947Z,100856.19
2022-12-26T15:47:50.188Z,100799.72
2022-12-26T15:51:17.006Z,100807.56
2022-12-26T15:55:17.501Z,100802.69
2022-12-26T15:59:10.502Z,100808.63
2022-12-26T16:02:40.910Z,100813.63
2022-12-26T16:06:25.025Z,100808.63
2022-12-26T16:09:49.929Z,100804.13
2022-12-26T16:13:23.117Z,100806.75
2022-12-26T16:16:44.992Z,100804.22
2022-12-26T16:20:41.579Z,100798.94
2022-12-26T16:24:10.259Z,100789.59
2022-12-26T16:27:32.413Z,100767.28
2022-12-26T16:30:54.554Z,100779.41
2022-12-26T16:34:19.392Z,100761.56
2022-12-26T16:37:41.523Z,100722.19
2022-12-26T16:41:19.699Z,100736.22
2022-12-26T16:44:43.214Z,100723.72
2022-12-26T16:48:08.118Z,100715.94
2022-12-26T16:51:48.997Z,100717.78
2022-12-26T16:55:35.386Z,100700.72
2022-12-26T16:59:06.179Z,100699.78
2022-12-26T17:02:30.879Z,100691.31
2022-12-26T17:05:53.010Z,100689.53
2022-12-26T17:09:17.445Z,100679.31
2022-12-26T17:12:40.959Z,100664.06
2022-12-26T17:16:10.774Z,100657.34
2022-12-26T17:19:34.200Z,100650.38
2022-12-26T17:22:57.120Z,100657.06
2022-12-26T17:26:25.081Z,100654.41
2022-12-26T17:29:50.546Z,100657.06
2022-12-26T17:33:18.642Z,100646.91
2022-12-26T17:40:27.411Z,100640.91
2022-12-26T17:43:50.412Z,100636.56
2022-12-26T17:47:22.662Z,100628.00
2022-12-26T17:50:48.043Z,100625.69
2022-12-26T17:54:13.548Z,100621.63
2022-12-26T17:57:35.723Z,100621.75
2022-12-26T18:01:01.013Z,100625.13
2022-12-26T18:04:22.853Z,100616.75
2022-12-26T18:07:47.423Z,100596.28
2022-12-26T18:11:14.539Z,100585.56
2022-12-26T18:14:36.499Z,100573.69
2022-12-26T18:17:59.069Z,100575.56
2022-12-26T18:21:21.174Z,100565.50
2022-12-26T18:24:44.521Z,100548.53
2022-12-26T18:28:06.397Z,100543.41
2022-12-26T18:31:28.973Z,100546.91
2022-12-26T18:34:51.008Z,100530.56
2022-12-26T18:38:15.660Z,100537.41
2022-12-26T18:41:41.350Z,100541.84
2022-12-26T18:45:03.167Z,100538.38
2022-12-26T18:48:25.343Z,100532.53
2022-12-26T18:51:47.058Z,100523.16
2022-12-26T18:55:10.083Z,100519.06
2022-12-26T18:58:33.374Z,100518.34
2022-12-26T19:01:55.529Z,100505.72
2022-12-26T19:05:20.134Z,100505.81
2022-12-26T19:08:42.516Z,100480.25
2022-12-26T19:12:04.915Z,100470.25
2022-12-26T19:15:28.266Z,100477.09
2022-12-26T19:18:50.465Z,100478.78
2022-12-26T19:22:12.359Z,100480.31
2022-12-26T19:25:35.699Z,100471.94
2022-12-26T19:28:57.926Z,100471.88
2022-12-26T19:32:21.222Z,100468.47
2022-12-26T19:35:43.108Z,100453.19
2022-12-26T19:39:05.222Z,100459.16
2022-12-26T19:42:27.217Z,100461.69
2022-12-26T19:45:51.632Z,100447.19
2022-12-26T19:49:14.623Z,100451.59
2022-12-26T19:52:38.425Z,100449.03
2022-12-26T19:56:00.565Z,100452.66
2022-12-26T19:59:24.705Z,100435.75
2022-12-26T20:02:47.164Z,100423.00
2022-12-26T20:06:15.603Z,100414.56
2022-12-26T20:09:37.555Z,100410.47
2022-12-26T20:12:59.363Z,100416.41
2022-12-26T20:17:03.216Z,100398.66
2022-12-26T20:20:06.033Z,100384.34
2022-12-26T20:23:29.500Z,100369.91
2022-12-26T20:26:52.090Z,100364.91
2022-12-26T20:30:13.966Z,100365.91
2022-12-26T20:33:37.493Z,100344.84
2022-12-26T20:36:59.497Z,100327.66
2022-12-26T20:40:25.209Z,100345.78
2022-12-26T20:43:48.442Z,100343.25
2022-12-26T20:47:11.041Z,100348.34
2022-12-26T20:50:33.843Z,100327.91
2022-12-26T20:53:55.911Z,100328.13
2022-12-26T20:57:20.566Z,100322.28
2022-12-26T21:00:45.034Z,100314.66
2022-12-26T21:04:07.730Z,100319.03
2022-12-26T21:07:33.029Z,100316.63
2022-12-26T21:10:54.859Z,100303.09
2022-12-26T21:14:21.506Z,100309.06
2022-12-26T21:17:42.974Z,100299.81
2022-12-26T21:21:09.792Z,100289.78
2022-12-26T21:24:33.093Z,100281.44
2022-12-26T21:27:59.030Z,100272.94
2022-12-26T21:31:22.696Z,100258.59
2022-12-26T21:34:44.655Z,100267.22
2022-12-26T21:38:08.964Z,100250.38
2022-12-26T21:41:30.865Z,100246.25
2022-12-26T21:44:52.527Z,100242.09
2022-12-26T21:48:16.149Z,100227.72
2022-12-26T21:51:38.872Z,100236.31
2022-12-26T21:55:17.779Z,100222.03
2022-12-26T21:58:53.835Z,100222.09
2022-12-26T22:02:30.452Z,100208.56
2022-12-26T22:05:53.852Z,100187.44
2022-12-26T22:09:17.399Z,100184.16
2022-12-26T22:12:56.999Z,100176.63
2022-12-26T22:16:20.051Z,100162.25
2022-12-26T22:19:41.795Z,100162.31
2022-12-26T22:23:05.500Z,100142.06
2022-12-26T22:26:29.414Z,100148.09
2022-12-26T22:29:53.467Z,100142.22
2022-12-26T22:33:15.391Z,100121.06
2022-12-26T22:36:37.677Z,100119.50
2022-12-26T22:40:00.888Z,100112.78
2022-12-26T22:43:22.797Z,100108.66
2022-12-26T22:46:44.778Z,100101.09
2022-12-26T22:50:07.217Z,100085.84
2022-12-26T22:53:30.520Z,100076.66
2022-12-26T22:56:53.999Z,100072.47
2022-12-26T23:00:16.720Z,100061.47
2022-12-26T23:03:38.694Z,100051.34
2022-12-26T23:07:01.139Z,100043.75
2022-12-26T23:10:25.421Z,100038.66
2022-12-26T23:13:49.927Z,100037.03
2022-12-26T23:17:36.177Z,100027.72
2022-12-26T23:21:27.918Z,100015.03
2022-12-26T23:24:50.007Z,100009.91
2022-12-26T23:28:29.477Z,100007.41
2022-12-26T23:31:53.142Z,100001.56
2022-12-26T23:35:15.023Z,99993.13
2022-12-26T23:38:36.915Z,99988.94
2022-12-26T23:41:58.541Z,99978.81
2022-12-26T23:45:20.528Z,99967.81
2022-12-26T23:48:43.683Z,99963.63
2022-12-26T23:52:06.186Z,99966.16
2022-12-26T23:55:28.740Z,99915.13
2022-12-26T23:58:53.503Z,99943.34
